Time;durP1;ratioP1;P1;durP2;ratioP2;P2;SDS_P1;SDS_P2;PMS_P1;PMS_P2;Temp;Humidity;BMP_temperature;BMP_pressure;BME280_temperature;BME280_humidity;BME280_pressure;Samples;Min_cycle;Max_cycle;Signal;HPM_P1;HPM_P2
2021/01/07 00:01:58;;;;;;;11.30;8.15;;;;;;;;;;6268928;22;20050;-87
2021/01/07 00:04:24;;;;;;;12.10;8.68;;;;;;;;;;6275654;22;20012;-86
2021/01/07 00:06:50;;;;;;;9.75;7.25;;;;;;;;;;6302874;22;20019;-86
2021/01/07 00:09:21;;;;;;;12.35;7.68;;;;;;;;;;6293777;22;20034;-86
2021/01/07 00:11:51;;;;;;;42.65;10.90;;;;;;;;;;6261733;22;20023;-87
2021/01/07 00:14:18;;;;;;;17.45;9.02;;;;;;;;;;6263315;22;20306;-87
2021/01/07 00:16:56;;;;;;;27.30;9.52;;;;;;;;;;6296864;22;20050;-86
2021/01/07 00:19:22;;;;;;;15.40;8.48;;;;;;;;;;6276661;22;20038;-87
2021/01/07 00:21:48;;;;;;;55.88;10.43;;;;;;;;;;6264690;22;20050;-86
2021/01/07 00:24:15;;;;;;;62.40;11.98;;;;;;;;;;6287088;22;20203;-86
2021/01/07 00:26:41;;;;;;;13.18;7.85;;;;;;;;;;6260082;22;20055;-86
2021/01/07 00:29:07;;;;;;;10.23;6.60;;;;;;;;;;6286908;22;20024;-86
2021/01/07 00:31:40;;;;;;;12.00;7.40;;;;;;;;;;6259125;22;20046;-87
2021/01/07 00:34:06;;;;;;;16.15;8.40;;;;;;;;;;6259719;22;20090;-86
2021/01/07 00:36:33;;;;;;;11.27;8.05;;;;;;;;;;6258626;22;20028;-86
2021/01/07 00:38:59;;;;;;;13.05;7.50;;;;;;;;;;6285207;22;20034;-86
2021/01/07 00:41:32;;;;;;;35.88;9.63;;;;;;;;;;6287207;22;20329;-86
2021/01/07 00:44:01;;;;;;;10.63;7.28;;;;;;;;;;6263807;22;20024;-86
2021/01/07 00:46:27;;;;;;;10.63;7.22;;;;;;;;;;6262394;22;20028;-85
2021/01/07 00:48:56;;;;;;;8.32;6.50;;;;;;;;;;6285385;22;20051;-85
2021/01/07 00:51:29;;;;;;;34.97;8.45;;;;;;;;;;6270420;22;20067;-85
2021/01/07 00:53:56;;;;;;;18.05;7.80;;;;;;;;;;6272872;22;20031;-85
2021/01/07 00:56:23;;;;;;;9.10;6.55;;;;;;;;;;6273194;22;20054;-85
2021/01/07 00:58:53;;;;;;;9.98;7.50;;;;;;;;;;6299462;22;20031;-85
2021/01/07 01:01:19;;;;;;;14.55;7.30;;;;;;;;;;6296786;22;20024;-85
2021/01/07 01:03:44;;;;;;;8.35;6.40;;;;;;;;;;6294868;22;20024;-85
2021/01/07 01:06:11;;;;;;;9.15;6.18;;;;;;;;;;6263291;22;20039;-85
2021/01/07 01:08:36;;;;;;;10.57;6.90;;;;;;;;;;6283889;22;20043;-84
2021/01/07 01:11:02;;;;;;;10.02;6.43;;;;;;;;;;6284389;22;20092;-85
2021/01/07 01:13:29;;;;;;;58.13;9.27;;;;;;;;;;6284419;22;20028;-85
2021/01/07 01:15:55;;;;;;;56.90;10.05;;;;;;;;;;6282103;22;20093;-84
2021/01/07 01:18:21;;;;;;;14.60;7.30;;;;;;;;;;6256490;22;20035;-85
2021/01/07 01:20:47;;;;;;;10.90;6.90;;;;;;;;;;6282723;22;20024;-85
2021/01/07 01:23:15;;;;;;;21.38;7.72;;;;;;;;;;6266892;22;20075;-85
2021/01/07 01:25:41;;;;;;;8.93;6.63;;;;;;;;;;6257350;22;20276;-85
2021/01/07 01:28:07;;;;;;;10.30;6.47;;;;;;;;;;6257744;22;20099;-84
2021/01/07 01:30:36;;;;;;;9.93;7.00;;;;;;;;;;6256678;22;20027;-85
2021/01/07 01:33:03;;;;;;;10.73;6.78;;;;;;;;;;6282699;22;20467;-84
2021/01/07 01:35:30;;;;;;;39.10;8.88;;;;;;;;;;6257071;22;20406;-84
2021/01/07 01:37:58;;;;;;;9.45;6.63;;;;;;;;;;6284511;22;20332;-85
2021/01/07 01:40:25;;;;;;;9.23;7.05;;;;;;;;;;6254409;22;20031;-84
2021/01/07 01:42:51;;;;;;;10.77;7.40;;;;;;;;;;6255621;22;20024;-85
2021/01/07 01:45:24;;;;;;;9.85;6.90;;;;;;;;;;6283003;22;20045;-86
2021/01/07 01:47:51;;;;;;;16.60;7.80;;;;;;;;;;6257696;22;20046;-85
2021/01/07 01:50:17;;;;;;;47.47;8.45;;;;;;;;;;6284906;22;20024;-86
2021/01/07 01:52:43;;;;;;;78.32;10.50;;;;;;;;;;6257149;22;20023;-86
2021/01/07 01:55:10;;;;;;;11.50;7.30;;;;;;;;;;6284941;22;20024;-86
2021/01/07 01:57:37;;;;;;;9.25;7.30;;;;;;;;;;6260190;22;20027;-86
2021/01/07 02:00:04;;;;;;;13.32;7.07;;;;;;;;;;6260851;22;20073;-87
2021/01/07 02:02:31;;;;;;;12.27;7.35;;;;;;;;;;6287183;22;20145;-87
2021/01/07 02:05:02;;;;;;;11.57;6.70;;;;;;;;;;6261899;22;20027;-87
2021/01/07 02:07:28;;;;;;;9.93;6.82;;;;;;;;;;6261018;22;20027;-87
2021/01/07 02:09:56;;;;;;;13.00;7.22;;;;;;;;;;6287995;22;20282;-86
2021/01/07 02:12:25;;;;;;;44.97;8.45;;;;;;;;;;6256581;22;20105;-87
2021/01/07 02:14:51;;;;;;;10.10;6.88;;;;;;;;;;6256440;22;20023;-87
2021/01/07 02:17:17;;;;;;;11.27;6.72;;;;;;;;;;6283253;22;20077;-87
2021/01/07 02:19:56;;;;;;;19.83;6.95;;;;;;;;;;6260147;22;20107;-86
2021/01/07 02:22:22;;;;;;;9.52;6.20;;;;;;;;;;6284031;22;20027;-86
2021/01/07 02:24:48;;;;;;;8.10;5.90;;;;;;;;;;6257430;22;20420;-86
2021/01/07 02:27:15;;;;;;;158.15;17.45;;;;;;;;;;6282753;22;20027;-86
2021/01/07 02:29:41;;;;;;;40.85;8.07;;;;;;;;;;6283596;22;20028;-86
2021/01/07 02:32:09;;;;;;;7.72;5.90;;;;;;;;;;6257274;22;20028;-86
2021/01/07 02:34:35;;;;;;;33.22;7.65;;;;;;;;;;6257025;22;20020;-84
2021/01/07 02:37:01;;;;;;;7.78;5.90;;;;;;;;;;6283412;22;20082;-86
2021/01/07 02:39:30;;;;;;;9.20;6.30;;;;;;;;;;6281331;22;20031;-85
2021/01/07 02:41:59;;;;;;;14.77;6.82;;;;;;;;;;6283381;22;20028;-85
2021/01/07 02:44:25;;;;;;;9.82;6.47;;;;;;;;;;6257304;22;20024;-86
2021/01/07 02:46:52;;;;;;;10.02;6.45;;;;;;;;;;6257148;22;20055;-86
2021/01/07 02:49:19;;;;;;;11.82;7.32;;;;;;;;;;6256353;22;20034;-86
2021/01/07 02:51:45;;;;;;;10.20;7.57;;;;;;;;;;6284545;22;20089;-86
2021/01/07 02:54:12;;;;;;;10.27;7.28;;;;;;;;;;6263871;22;20034;-86
2021/01/07 02:56:38;;;;;;;101.20;13.15;;;;;;;;;;6286788;22;20023;-86
2021/01/07 02:59:04;;;;;;;18.50;9.32;;;;;;;;;;6285993;22;20054;-86
2021/01/07 03:01:32;;;;;;;58.55;11.52;;;;;;;;;;6284027;22;20024;-86
2021/01/07 03:03:58;;;;;;;12.77;8.35;;;;;;;;;;6263384;22;20024;-86
2021/01/07 03:06:25;;;;;;;18.95;8.80;;;;;;;;;;6258191;22;20050;-86
2021/01/07 03:08:54;;;;;;;11.57;8.45;;;;;;;;;;6261720;22;20032;-86
2021/01/07 03:11:20;;;;;;;12.35;8.10;;;;;;;;;;6293207;22;20049;-86
2021/01/07 03:13:46;;;;;;;14.98;9.32;;;;;;;;;;6293079;22;20032;-87
2021/01/07 03:16:13;;;;;;;12.45;8.50;;;;;;;;;;6292550;22;20050;-85
2021/01/07 03:18:39;;;;;;;12.75;9.27;;;;;;;;;;6265745;22;20043;-86
2021/01/07 03:21:05;;;;;;;12.05;8.27;;;;;;;;;;6268523;22;20043;-86
2021/01/07 03:23:31;;;;;;;12.27;9.18;;;;;;;;;;6293790;22;20080;-85
2021/01/07 03:25:57;;;;;;;12.32;8.23;;;;;;;;;;6269423;22;20031;-86
2021/01/07 03:28:24;;;;;;;13.57;8.40;;;;;;;;;;6296110;22;20011;-86
2021/01/07 03:30:51;;;;;;;107.72;16.90;;;;;;;;;;6271833;22;20023;-87
2021/01/07 03:33:17;;;;;;;14.93;9.93;;;;;;;;;;6295548;22;20035;-86
2021/01/07 03:35:43;;;;;;;14.13;9.40;;;;;;;;;;6295938;22;20023;-86
2021/01/07 03:38:09;;;;;;;13.30;8.30;;;;;;;;;;6271161;22;20012;-87
2021/01/07 03:40:36;;;;;;;15.55;8.95;;;;;;;;;;6300166;22;20046;-87
2021/01/07 03:43:05;;;;;;;14.02;9.57;;;;;;;;;;6292608;22;20028;-87
2021/01/07 03:45:31;;;;;;;15.20;9.43;;;;;;;;;;6262051;22;20027;-87
2021/01/07 03:47:58;;;;;;;14.80;9.45;;;;;;;;;;6264181;22;20038;-87
2021/01/07 03:50:24;;;;;;;16.75;9.15;;;;;;;;;;6294852;22;20048;-87
2021/01/07 03:52:50;;;;;;;15.40;9.73;;;;;;;;;;6275175;22;20019;-87
2021/01/07 03:55:16;;;;;;;15.13;9.88;;;;;;;;;;6274811;22;20076;-86
2021/01/07 03:57:42;;;;;;;13.63;9.30;;;;;;;;;;6264510;22;20064;-87
2021/01/07 04:00:12;;;;;;;16.88;10.35;;;;;;;;;;6289812;22;20024;-87
2021/01/07 04:02:38;;;;;;;16.98;9.15;;;;;;;;;;6261114;22;20101;-86
2021/01/07 04:05:13;;;;;;;15.00;9.35;;;;;;;;;;6270731;22;20055;-87
2021/01/07 04:07:39;;;;;;;14.68;9.20;;;;;;;;;;6302010;22;20028;-86
2021/01/07 04:10:06;;;;;;;15.95;10.48;;;;;;;;;;6299005;22;20036;-87
2021/01/07 04:12:33;;;;;;;13.10;9.30;;;;;;;;;;6289371;22;20043;-86
2021/01/07 04:15:00;;;;;;;14.52;9.15;;;;;;;;;;6263699;22;20065;-86
2021/01/07 04:17:32;;;;;;;18.15;9.68;;;;;;;;;;6290373;22;20081;-86
2021/01/07 04:19:59;;;;;;;13.77;8.32;;;;;;;;;;6263007;22;20024;-86
2021/01/07 04:22:25;;;;;;;37.92;10.50;;;;;;;;;;6266773;22;20026;-85
2021/01/07 04:24:57;;;;;;;17.63;9.10;;;;;;;;;;6291186;22;20058;-86
2021/01/07 04:27:23;;;;;;;15.82;9.30;;;;;;;;;;6264444;22;20028;-86
2021/01/07 04:29:49;;;;;;;14.98;8.70;;;;;;;;;;6261266;22;20056;-86
2021/01/07 04:32:18;;;;;;;14.52;8.65;;;;;;;;;;6291806;22;20023;-86
2021/01/07 04:34:48;;;;;;;12.27;8.27;;;;;;;;;;6266101;22;20286;-86
2021/01/07 04:37:14;;;;;;;13.35;8.27;;;;;;;;;;6292334;22;20024;-87
2021/01/07 04:39:40;;;;;;;13.07;8.38;;;;;;;;;;6262868;22;20023;-87
2021/01/07 04:42:15;;;;;;;10.45;6.95;;;;;;;;;;6287783;22;20022;-87
2021/01/07 04:44:42;;;;;;;11.68;7.78;;;;;;;;;;6260253;22;20068;-87
2021/01/07 04:47:09;;;;;;;12.30;7.78;;;;;;;;;;6263003;22;20097;-87
2021/01/07 04:49:36;;;;;;;74.43;13.07;;;;;;;;;;6288666;22;20023;-87
2021/01/07 04:52:06;;;;;;;11.82;7.45;;;;;;;;;;6257537;22;20027;-87
2021/01/07 04:54:32;;;;;;;11.43;7.07;;;;;;;;;;6260867;22;20027;-87
2021/01/07 04:56:59;;;;;;;10.98;6.78;;;;;;;;;;6260050;22;20058;-87
2021/01/07 04:59:25;;;;;;;11.15;7.38;;;;;;;;;;6259093;22;20264;-88
2021/01/07 05:01:54;;;;;;;10.15;6.72;;;;;;;;;;6283138;22;20028;-87
2021/01/07 05:04:20;;;;;;;14.02;6.93;;;;;;;;;;6282521;22;20393;-88
2021/01/07 05:06:47;;;;;;;32.38;8.60;;;;;;;;;;6258321;22;20028;-87
2021/01/07 05:09:13;;;;;;;11.02;6.30;;;;;;;;;;6282075;22;20197;-87
2021/01/07 05:11:40;;;;;;;15.55;6.53;;;;;;;;;;6255402;22;20055;-86
2021/01/07 05:14:06;;;;;;;10.93;6.50;;;;;;;;;;6256119;22;20028;-87
2021/01/07 05:16:33;;;;;;;10.38;6.50;;;;;;;;;;6283180;22;20031;-88
2021/01/07 05:19:11;;;;;;;9.40;5.93;;;;;;;;;;6285131;22;20393;-88
2021/01/07 05:21:39;;;;;;;34.47;21.45;;;;;;;;;;6289815;22;20024;-85
2021/01/07 05:24:05;;;;;;;35.75;31.88;;;;;;;;;;6287894;22;20023;-85
2021/01/07 05:26:36;;;;;;;10.45;7.53;;;;;;;;;;6287738;22;20134;-86
2021/01/07 05:29:02;;;;;;;17.30;7.90;;;;;;;;;;6260301;22;20027;-87
2021/01/07 05:31:28;;;;;;;45.25;40.90;;;;;;;;;;6291423;22;20212;-86
2021/01/07 05:33:55;;;;;;;13.15;10.07;;;;;;;;;;6261662;22;20481;-86
2021/01/07 05:36:28;;;;;;;30.85;7.75;;;;;;;;;;6261972;22;20034;-87
2021/01/07 05:38:55;;;;;;;10.27;6.90;;;;;;;;;;6292425;22;20063;-87
2021/01/07 05:41:25;;;;;;;10.55;7.10;;;;;;;;;;6297592;22;20027;-87
2021/01/07 05:44:00;;;;;;;30.73;15.95;;;;;;;;;;6297599;22;20031;-87
2021/01/07 05:46:47;;;;;;;89.47;9.85;;;;;;;;;;6264660;22;20083;-87
2021/01/07 05:49:18;;;;;;;15.27;7.90;;;;;;;;;;6290201;22;20046;-87
2021/01/07 05:51:45;;;;;;;71.40;10.10;;;;;;;;;;6263113;22;20028;-87
2021/01/07 05:54:15;;;;;;;80.93;13.73;;;;;;;;;;6262837;22;20024;-87
2021/01/07 05:56:43;;;;;;;30.98;10.55;;;;;;;;;;6289250;22;20030;-87
2021/01/07 05:59:11;;;;;;;15.05;12.35;;;;;;;;;;6261100;22;20034;-87
2021/01/07 06:01:41;;;;;;;13.82;11.48;;;;;;;;;;6259856;22;20034;-87
2021/01/07 06:04:09;;;;;;;10.15;6.55;;;;;;;;;;6260766;22;20032;-88
2021/01/07 06:06:35;;;;;;;9.00;5.43;;;;;;;;;;6259658;22;20050;-88
2021/01/07 06:09:03;;;;;;;25.30;8.68;;;;;;;;;;6286767;22;20016;-87
2021/01/07 06:11:31;;;;;;;10.23;6.45;;;;;;;;;;6261036;22;20075;-87
2021/01/07 06:13:57;;;;;;;9.77;5.93;;;;;;;;;;6286925;22;20023;-87
2021/01/07 06:16:27;;;;;;;9.85;5.60;;;;;;;;;;6262043;22;20055;-89
2021/01/07 06:19:24;;;;;;;9.80;6.97;;;;;;;;;;6286395;22;20023;-86
2021/01/07 06:21:54;;;;;;;8.25;5.45;;;;;;;;;;6285651;22;20085;-86
2021/01/07 06:24:20;;;;;;;9.82;6.40;;;;;;;;;;6269490;22;20071;-86
2021/01/07 06:27:17;;;;;;;8.57;5.53;;;;;;;;;;6298623;22;20024;-87
2021/01/07 06:29:43;;;;;;;8.38;5.50;;;;;;;;;;6283591;22;20063;-86
2021/01/07 06:32:11;;;;;;;9.90;5.90;;;;;;;;;;6256740;22;20035;-87
2021/01/07 06:34:43;;;;;;;39.00;8.82;;;;;;;;;;6260907;22;20024;-86
2021/01/07 06:37:10;;;;;;;211.18;21.08;;;;;;;;;;6285866;22;20082;-86
2021/01/07 06:39:43;;;;;;;7.22;5.13;;;;;;;;;;6261736;22;20058;-87
2021/01/07 06:42:17;;;;;;;8.55;5.85;;;;;;;;;;6258310;22;20035;-88
2021/01/07 06:44:57;;;;;;;11.75;8.95;;;;;;;;;;6285349;22;20030;-87
2021/01/07 06:47:28;;;;;;;10.18;7.50;;;;;;;;;;6289001;22;20340;-85
2021/01/07 06:49:54;;;;;;;8.05;5.60;;;;;;;;;;6262210;22;20031;-85
2021/01/07 06:52:22;;;;;;;82.22;11.95;;;;;;;;;;6267404;22;20024;-86
2021/01/07 06:54:52;;;;;;;7.38;5.38;;;;;;;;;;6294020;22;20024;-86
2021/01/07 06:57:18;;;;;;;8.18;5.72;;;;;;;;;;6265374;22;20016;-86
2021/01/07 07:00:15;;;;;;;16.88;15.10;;;;;;;;;;6288604;22;20024;-87
2021/01/07 07:03:00;;;;;;;12.05;8.32;;;;;;;;;;6290395;22;20065;-87
2021/01/07 07:05:39;;;;;;;8.98;6.38;;;;;;;;;;6262115;22;20066;-88
2021/01/07 07:08:09;;;;;;;240.02;193.15;;;;;;;;;;6264537;22;20028;-86
2021/01/07 07:10:39;;;;;;;36.70;31.35;;;;;;;;;;6263652;22;20095;-87
2021/01/07 07:13:33;;;;;;;11.02;8.75;;;;;;;;;;6287698;22;20035;-87
2021/01/07 07:16:02;;;;;;;11.30;7.18;;;;;;;;;;6287414;22;20024;-87
2021/01/07 07:18:34;;;;;;;7.93;5.80;;;;;;;;;;6259043;22;20074;-87
2021/01/07 07:21:21;;;;;;;20.73;7.43;;;;;;;;;;6283018;22;20024;-84
2021/01/07 07:23:48;;;;;;;10.57;6.95;;;;;;;;;;6288236;22;20203;-86
2021/01/07 07:26:47;;;;;;;199.00;28.08;;;;;;;;;;6296114;22;20139;-86
2021/01/07 07:29:15;;;;;;;9.60;6.63;;;;;;;;;;6297466;22;20129;-88
2021/01/07 07:31:49;;;;;;;10.23;7.07;;;;;;;;;;6297703;22;20015;-86
2021/01/07 07:34:27;;;;;;;10.30;7.65;;;;;;;;;;6272418;22;20012;-88
2021/01/07 07:36:54;;;;;;;8.32;6.57;;;;;;;;;;6263297;22;20024;-88
2021/01/07 07:39:27;;;;;;;13.23;8.57;;;;;;;;;;6299596;22;20026;-88
2021/01/07 07:42:22;;;;;;;11.07;7.38;;;;;;;;;;6299435;22;20015;-87
2021/01/07 07:44:49;;;;;;;10.63;5.97;;;;;;;;;;6264897;22;20077;-86
2021/01/07 07:47:19;;;;;;;9.23;6.13;;;;;;;;;;6263879;22;20035;-86
2021/01/07 07:49:53;;;;;;;10.95;6.85;;;;;;;;;;6266699;22;20023;-88
2021/01/07 07:52:40;;;;;;;12.50;8.45;;;;;;;;;;6273610;22;20079;-89
2021/01/07 07:55:07;;;;;;;56.08;11.32;;;;;;;;;;6269947;22;20035;-89
2021/01/07 07:57:46;;;;;;;95.93;30.83;;;;;;;;;;6291292;22;20024;-89
2021/01/07 08:03:44;;;;;;;10.73;7.13;;;;;;;;;;6212573;22;20174;-89
2021/01/07 08:06:12;;;;;;;11.98;6.45;;;;;;;;;;6271466;22;20295;-90
2021/01/07 08:08:43;;;;;;;10.98;7.68;;;;;;;;;;6296451;22;20024;-89
2021/01/07 08:11:23;;;;;;;12.35;7.63;;;;;;;;;;6270679;22;20007;-90
2021/01/07 08:14:04;;;;;;;10.32;6.60;;;;;;;;;;6269149;22;20077;-89
2021/01/07 08:16:33;;;;;;;13.45;7.70;;;;;;;;;;6264818;22;20038;-90
2021/01/07 08:19:01;;;;;;;8.57;5.70;;;;;;;;;;6262105;22;20222;-90
2021/01/07 08:21:28;;;;;;;8.30;5.38;;;;;;;;;;6263760;22;20078;-88
2021/01/07 08:24:08;;;;;;;10.02;6.00;;;;;;;;;;6262374;22;20023;-89
2021/01/07 08:26:37;;;;;;;8.95;6.63;;;;;;;;;;6262117;22;20425;-88
2021/01/07 08:29:06;;;;;;;10.75;6.72;;;;;;;;;;6259212;22;20075;-90
2021/01/07 08:31:33;;;;;;;8.70;6.15;;;;;;;;;;6286142;22;20099;-89
2021/01/07 08:34:02;;;;;;;6.60;4.88;;;;;;;;;;6287059;22;20320;-89
2021/01/07 08:36:29;;;;;;;20.52;8.43;;;;;;;;;;6262633;22;20042;-88
2021/01/07 08:38:56;;;;;;;40.33;32.30;;;;;;;;;;6287971;22;20024;-87
2021/01/07 08:41:23;;;;;;;12.52;8.02;;;;;;;;;;6286898;22;20023;-87
2021/01/07 08:43:51;;;;;;;14.82;10.88;;;;;;;;;;6284212;22;20034;-87
2021/01/07 08:46:20;;;;;;;13.60;10.18;;;;;;;;;;6282701;22;20041;-87
2021/01/07 08:49:02;;;;;;;18.83;9.20;;;;;;;;;;6281957;22;20272;-87
2021/01/07 08:51:35;;;;;;;15.40;12.80;;;;;;;;;;6285398;22;20027;-88
2021/01/07 08:54:08;;;;;;;44.00;39.60;;;;;;;;;;6293239;22;20047;-87
2021/01/07 08:56:36;;;;;;;11.27;7.68;;;;;;;;;;6257297;22;20051;-88
2021/01/07 08:59:19;;;;;;;15.60;11.32;;;;;;;;;;6282822;22;20024;-88
2021/01/07 09:01:46;;;;;;;13.57;9.75;;;;;;;;;;6257610;22;20102;-88
2021/01/07 09:04:34;;;;;;;11.13;5.72;;;;;;;;;;6259021;22;20261;-88
2021/01/07 09:07:10;;;;;;;82.45;30.35;;;;;;;;;;6288085;22;20047;-88
2021/01/07 09:09:40;;;;;;;17.33;11.88;;;;;;;;;;6266919;22;20011;-89
2021/01/07 09:12:10;;;;;;;10.88;6.20;;;;;;;;;;6270872;22;20025;-88
2021/01/07 09:14:42;;;;;;;10.30;7.68;;;;;;;;;;6295210;22;20023;-88
2021/01/07 09:17:08;;;;;;;47.33;42.83;;;;;;;;;;6284275;22;20016;-88
2021/01/07 09:20:10;;;;;;;120.07;17.98;;;;;;;;;;6283138;22;20034;-86
2021/01/07 09:22:37;;;;;;;11.65;8.90;;;;;;;;;;6256101;22;20061;-87
2021/01/07 09:25:19;;;;;;;9.30;7.03;;;;;;;;;;6281251;22;20085;-86
2021/01/07 09:27:51;;;;;;;54.47;10.73;;;;;;;;;;6257574;22;20032;-87
2021/01/07 09:30:17;;;;;;;6.78;4.82;;;;;;;;;;6281131;22;20054;-89
2021/01/07 09:32:49;;;;;;;6.55;4.60;;;;;;;;;;6282508;22;20352;-89
2021/01/07 09:35:17;;;;;;;7.07;5.22;;;;;;;;;;6282293;22;20031;-89
2021/01/07 09:37:58;;;;;;;11.63;5.68;;;;;;;;;;6262558;22;20038;-89
2021/01/07 09:40:31;;;;;;;46.55;11.05;;;;;;;;;;6257652;22;20024;-89
2021/01/07 09:42:57;;;;;;;6.93;4.97;;;;;;;;;;6285036;22;20032;-88
2021/01/07 09:45:23;;;;;;;10.40;5.20;;;;;;;;;;6260486;22;20075;-87
2021/01/07 09:47:56;;;;;;;29.42;7.57;;;;;;;;;;6261372;22;20231;-88
2021/01/07 09:50:23;;;;;;;5.57;4.18;;;;;;;;;;6287861;22;20498;-87
2021/01/07 09:52:50;;;;;;;6.50;4.60;;;;;;;;;;6285915;22;20024;-89
2021/01/07 09:55:18;;;;;;;9.63;7.78;;;;;;;;;;6285159;22;20020;-89
2021/01/07 09:57:48;;;;;;;4.85;3.17;;;;;;;;;;6257382;22;20023;-89
2021/01/07 10:00:18;;;;;;;5.93;4.47;;;;;;;;;;6257297;22;20218;-88
2021/01/07 10:02:50;;;;;;;8.70;7.20;;;;;;;;;;6285740;22;20024;-88
2021/01/07 10:05:20;;;;;;;5.78;4.25;;;;;;;;;;6286636;22;20027;-89
2021/01/07 10:07:49;;;;;;;6.40;5.00;;;;;;;;;;6229505;23;20032;-89
2021/01/07 10:10:15;;;;;;;5.72;4.07;;;;;;;;;;6254489;23;20027;-89
2021/01/07 10:12:42;;;;;;;13.68;11.32;;;;;;;;;;6250184;23;20048;-89
2021/01/07 10:15:09;;;;;;;5.50;3.72;;;;;;;;;;6230310;23;20063;-88
2021/01/07 10:17:35;;;;;;;55.38;49.88;;;;;;;;;;6253937;23;20030;-88
2021/01/07 10:20:01;;;;;;;4.13;3.20;;;;;;;;;;6229769;23;20340;-88
2021/01/07 10:22:33;;;;;;;7.82;5.60;;;;;;;;;;6227993;23;20315;-89
2021/01/07 10:25:03;;;;;;;6.32;4.93;;;;;;;;;;6229699;23;20196;-90
2021/01/07 10:27:33;;;;;;;5.25;3.80;;;;;;;;;;6234609;23;20028;-89
2021/01/07 10:30:00;;;;;;;4.90;3.60;;;;;;;;;;6254632;23;20059;-88
2021/01/07 10:32:26;;;;;;;12.07;10.50;;;;;;;;;;6257339;23;20031;-90
2021/01/07 10:35:02;;;;;;;9.77;6.88;;;;;;;;;;6255834;23;20306;-88
2021/01/07 10:37:36;;;;;;;14.05;12.80;;;;;;;;;;6259000;23;20051;-89
2021/01/07 10:40:04;;;;;;;11.80;10.55;;;;;;;;;;6232029;23;20470;-90
2021/01/07 10:42:35;;;;;;;4.97;3.95;;;;;;;;;;6250926;23;20024;-90
2021/01/07 10:45:02;;;;;;;5.25;4.15;;;;;;;;;;6228065;23;20028;-89
2021/01/07 10:47:31;;;;;;;5.82;4.50;;;;;;;;;;6228641;23;20034;-89
2021/01/07 10:50:03;;;;;;;6.28;3.55;;;;;;;;;;6223081;23;20028;-89
2021/01/07 10:52:29;;;;;;;7.38;6.00;;;;;;;;;;6228133;23;20205;-89
2021/01/07 10:55:07;;;;;;;5.40;3.50;;;;;;;;;;6252077;23;20078;-89
2021/01/07 10:57:33;;;;;;;4.93;3.50;;;;;;;;;;6225532;23;20024;-88
2021/01/07 11:00:22;;;;;;;6.30;4.38;;;;;;;;;;6253598;23;20150;-89
2021/01/07 11:02:48;;;;;;;5.07;3.33;;;;;;;;;;6256413;23;20248;-86
2021/01/07 11:05:37;;;;;;;5.05;2.60;;;;;;;;;;6257082;23;20209;-87
2021/01/07 11:08:14;;;;;;;3.65;2.03;;;;;;;;;;6233331;23;20095;-86
2021/01/07 11:10:50;;;;;;;5.40;2.58;;;;;;;;;;6230487;23;20226;-87
2021/01/07 11:13:36;;;;;;;5.50;4.38;;;;;;;;;;6232286;23;20421;-86
2021/01/07 11:16:20;;;;;;;4.63;3.67;;;;;;;;;;6237390;23;20023;-87
2021/01/07 11:18:54;;;;;;;4.47;2.08;;;;;;;;;;6238743;22;20027;-86
2021/01/07 11:21:45;;;;;;;55.15;7.28;;;;;;;;;;6244557;22;20066;-86
2021/01/07 11:24:12;;;;;;;3.47;2.40;;;;;;;;;;6236768;23;20028;-85
2021/01/07 11:26:40;;;;;;;3.67;2.35;;;;;;;;;;6232923;23;20083;-87
2021/01/07 11:29:08;;;;;;;3.97;2.50;;;;;;;;;;6231686;23;20058;-86
2021/01/07 11:31:50;;;;;;;3.63;2.40;;;;;;;;;;6241963;22;20046;-87
2021/01/07 11:34:21;;;;;;;4.22;2.70;;;;;;;;;;6242528;22;20016;-87
2021/01/07 11:37:09;;;;;;;4.25;3.33;;;;;;;;;;6256777;22;20024;-86
2021/01/07 11:40:04;;;;;;;13.52;12.15;;;;;;;;;;6239019;23;20091;-87
2021/01/07 11:42:34;;;;;;;4.20;2.90;;;;;;;;;;6232611;23;20024;-87
2021/01/07 11:45:19;;;;;;;4.72;3.25;;;;;;;;;;6232072;23;20100;-87
2021/01/07 11:47:52;;;;;;;4.78;2.97;;;;;;;;;;6232479;23;20035;-87
2021/01/07 11:50:29;;;;;;;4.88;4.30;;;;;;;;;;6233586;23;20024;-87
2021/01/07 11:52:56;;;;;;;4.45;2.97;;;;;;;;;;6229183;23;20117;-87
2021/01/07 11:55:23;;;;;;;18.55;15.65;;;;;;;;;;6228605;23;20267;-86
2021/01/07 11:57:54;;;;;;;21.90;16.27;;;;;;;;;;6237790;22;20068;-86
2021/01/07 12:00:25;;;;;;;110.65;78.88;;;;;;;;;;6264864;22;20030;-87
2021/01/07 12:02:53;;;;;;;98.95;41.35;;;;;;;;;;6227824;23;20028;-86
2021/01/07 12:05:37;;;;;;;21.10;16.55;;;;;;;;;;6228618;23;20032;-86
2021/01/07 12:08:03;;;;;;;283.17;172.38;;;;;;;;;;6226519;23;20424;-86
2021/01/07 12:10:42;;;;;;;7.05;5.25;;;;;;;;;;6228559;23;20032;-86
2021/01/07 12:13:35;;;;;;;5.20;3.30;;;;;;;;;;6210432;23;20037;-87
2021/01/07 12:16:20;;;;;;;145.75;15.90;;;;;;;;;;6198871;23;20183;-85
2021/01/07 12:18:52;;;;;;;5.03;3.35;;;;;;;;;;6198673;23;20036;-86
2021/01/07 12:21:19;;;;;;;5.93;3.22;;;;;;;;;;6196070;23;20079;-87
2021/01/07 12:24:05;;;;;;;19.30;4.65;;;;;;;;;;6220739;23;20016;-85
2021/01/07 12:26:32;;;;;;;7.65;4.65;;;;;;;;;;6195110;23;20028;-86
2021/01/07 12:29:00;;;;;;;7.90;5.40;;;;;;;;;;6197970;23;20413;-86
2021/01/07 12:31:40;;;;;;;11.13;5.75;;;;;;;;;;6201015;23;20035;-85
2021/01/07 12:34:27;;;;;;;8.25;5.35;;;;;;;;;;6224819;23;20075;-86
2021/01/07 12:37:07;;;;;;;8.07;5.05;;;;;;;;;;6185146;23;20039;-87
2021/01/07 12:39:37;;;;;;;11.27;8.43;;;;;;;;;;6226247;23;20032;-87
2021/01/07 12:42:08;;;;;;;21.02;11.77;;;;;;;;;;6198940;23;20048;-86
2021/01/07 12:44:37;;;;;;;17.83;11.18;;;;;;;;;;6195418;23;20039;-86
2021/01/07 12:47:04;;;;;;;58.33;41.05;;;;;;;;;;6197451;23;20178;-86
2021/01/07 12:49:32;;;;;;;12.90;9.73;;;;;;;;;;6196948;23;20247;-85
2021/01/07 12:51:59;;;;;;;6.45;3.80;;;;;;;;;;6224012;23;20041;-86
2021/01/07 12:54:27;;;;;;;6.55;5.30;;;;;;;;;;6220181;23;20040;-85
2021/01/07 12:57:14;;;;;;;5.57;4.45;;;;;;;;;;6220276;23;20032;-86
2021/01/07 13:00:10;;;;;;;5.28;4.07;;;;;;;;;;6198756;23;20032;-87
2021/01/07 13:02:50;;;;;;;21.23;7.20;;;;;;;;;;6192452;23;20139;-86
2021/01/07 13:05:22;;;;;;;27.98;23.60;;;;;;;;;;6217101;23;20120;-86
2021/01/07 13:08:17;;;;;;;27.50;24.50;;;;;;;;;;6219103;23;20059;-86
2021/01/07 13:10:59;;;;;;;4.53;3.72;;;;;;;;;;6195670;23;20052;-86
2021/01/07 13:13:51;;;;;;;5.03;4.40;;;;;;;;;;6194952;23;20115;-86
2021/01/07 13:16:42;;;;;;;7.07;5.55;;;;;;;;;;6217263;23;20082;-88
2021/01/07 13:26:21;;;;;;;4.30;3.40;;;;;;;;;;6208703;23;20095;-86
2021/01/07 13:29:03;;;;;;;6.13;4.38;;;;;;;;;;6197699;23;20017;-86
2021/01/07 13:31:35;;;;;;;4.55;2.78;;;;;;;;;;6195846;23;20031;-86
2021/01/07 13:34:07;;;;;;;6.47;3.25;;;;;;;;;;6197659;23;20540;-86
2021/01/07 13:36:48;;;;;;;6.80;3.03;;;;;;;;;;6196750;23;20059;-86
2021/01/07 13:39:20;;;;;;;4.47;2.92;;;;;;;;;;6207369;23;20016;-86
2021/01/07 13:41:58;;;;;;;5.10;3.80;;;;;;;;;;6210137;23;20103;-87
2021/01/07 13:45:04;;;;;;;3.28;2.42;;;;;;;;;;6207848;23;20042;-86
2021/01/07 13:47:46;;;;;;;3.13;2.50;;;;;;;;;;6210803;23;20076;-86
2021/01/07 13:50:34;;;;;;;3.78;2.63;;;;;;;;;;6209276;23;20016;-87
2021/01/07 13:53:17;;;;;;;3.05;2.20;;;;;;;;;;6210216;23;20021;-87
2021/01/07 13:56:01;;;;;;;4.93;2.97;;;;;;;;;;6205830;23;20024;-86
2021/01/07 13:58:42;;;;;;;4.30;3.13;;;;;;;;;;6201632;23;20038;-86
2021/01/07 14:01:26;;;;;;;3.08;2.35;;;;;;;;;;6220394;23;20017;-87
2021/01/07 14:04:12;;;;;;;6.82;3.63;;;;;;;;;;6196408;23;20020;-86
2021/01/07 14:06:54;;;;;;;8.45;3.13;;;;;;;;;;6179015;23;20043;-87
2021/01/07 14:09:28;;;;;;;4.75;2.40;;;;;;;;;;6193147;23;20068;-86
2021/01/07 14:12:10;;;;;;;5.10;2.90;;;;;;;;;;6198351;23;20038;-87
2021/01/07 14:14:44;;;;;;;3.72;2.95;;;;;;;;;;6202653;23;20052;-86
2021/01/07 14:17:14;;;;;;;3.45;2.58;;;;;;;;;;6171032;23;20035;-86
2021/01/07 14:19:41;;;;;;;4.65;3.00;;;;;;;;;;6193362;23;20037;-86
2021/01/07 14:22:11;;;;;;;4.85;3.05;;;;;;;;;;6195338;23;20115;-87
2021/01/07 14:24:54;;;;;;;3.83;2.47;;;;;;;;;;6225453;23;20345;-87
2021/01/07 14:27:48;;;;;;;4.10;2.58;;;;;;;;;;6220905;23;20086;-87
2021/01/07 14:30:32;;;;;;;4.18;3.10;;;;;;;;;;6194893;23;20025;-87
2021/01/07 14:33:13;;;;;;;52.63;6.55;;;;;;;;;;6220630;23;20024;-87
2021/01/07 14:36:15;;;;;;;4.50;2.90;;;;;;;;;;6197494;23;20046;-86
2021/01/07 14:39:01;;;;;;;4.38;3.10;;;;;;;;;;6197482;23;20016;-87
2021/01/07 14:41:41;;;;;;;6.20;3.70;;;;;;;;;;6196711;23;20016;-87
2021/01/07 14:44:25;;;;;;;3.97;2.78;;;;;;;;;;6196958;23;20039;-87
2021/01/07 14:46:57;;;;;;;4.35;3.08;;;;;;;;;;6200661;23;20012;-88
2021/01/07 14:49:42;;;;;;;15.30;4.18;;;;;;;;;;6207934;23;20012;-86
2021/01/07 14:52:17;;;;;;;3.83;2.63;;;;;;;;;;6200661;23;20211;-86
2021/01/07 14:54:47;;;;;;;3.83;2.47;;;;;;;;;;6194118;23;20028;-86
2021/01/07 14:57:37;;;;;;;3.28;2.40;;;;;;;;;;6231621;23;20020;-86
2021/01/07 15:00:04;;;;;;;5.22;2.70;;;;;;;;;;6203229;23;20013;-87
2021/01/07 15:02:39;;;;;;;4.22;2.65;;;;;;;;;;6199505;23;20048;-87
2021/01/07 15:05:07;;;;;;;3.40;2.10;;;;;;;;;;6198167;23;20044;-86
2021/01/07 15:07:39;;;;;;;9.32;3.42;;;;;;;;;;6195991;23;20044;-87
2021/01/07 15:10:27;;;;;;;4.05;2.80;;;;;;;;;;6205889;23;20080;-87
2021/01/07 15:13:07;;;;;;;4.20;3.03;;;;;;;;;;6208987;23;20016;-86